Home > Products > Valid Products > TAF

000
FTUS43 KLOT 201700
TAFGYY
TAF
KGYY 201739Z 2018/2118 35011G16KT P6SM SCT035
     FM202000 35012G17KT P6SM BKN035
     FM210000 35010G15KT P6SM SCT020 BKN030
     FM211300 35013G19KT P6SM VCSH SCT015 BKN020=



000
FTUS43 KLOT 201700
TAFRFD
TAF
KRFD 201739Z 2018/2118 33010G15KT P6SM SCT030
     FM201900 34011G16KT P6SM BKN035
     FM202100 35012G17KT P6SM BKN035
     FM210100 35008KT P6SM SCT025 BKN035
     FM211300 02011G17KT P6SM FEW015 SCT025=



000
FTUS43 KLOT 201700
TAFMDW
TAF
KMDW 201739Z 2018/2118 32010G15KT P6SM SCT030
     FM201900 33011G16KT P6SM BKN035
     FM202100 35012G17KT P6SM BKN035
     FM210100 35008KT P6SM SCT025 BKN035
     FM211300 01011G17KT P6SM VCSH SCT015 BKN025=



000
FTUS43 KLOT 201700
TAFGYY
TAF
KGYY 201739Z 2018/2118 35011G16KT P6SM SCT035
     FM202000 35012G17KT P6SM BKN035
     FM210000 35010G15KT P6SM SCT020 BKN030
     FM211300 35013G19KT P6SM VCSH SCT015 BKN020=



000
FTUS43 KLOT 201700
TAFDPA
TAF
KDPA 201739Z 2018/2118 33010G15KT P6SM SCT030
     FM201900 33011G16KT P6SM BKN035
     FM210100 35008KT P6SM SCT025 BKN035
     FM211000 36010KT P6SM SCT015 BKN025=



000
FTUS43 KLOT 201700
TAFORD
TAF
KORD 201739Z 2018/2124 32010G15KT P6SM SCT030
     FM201900 33011G16KT P6SM BKN035
     FM202100 35012G17KT P6SM BKN035
     FM210100 35008KT P6SM SCT025 BKN035
     FM211300 01011G17KT P6SM SCT015 BKN025=



000
FTUS43 KLOT 201600 AAB
TAFGYY
TAF AMD
KGYY 201605Z 2016/2112 31010G15KT P6SM SCT030
     FM201900 33012G17KT P6SM BKN030
     FM202100 01012G17KT P6SM OVC035
     FM210200 36012KT P6SM BKN030=



000
FTUS43 KLOT 201600 AAB
TAFMDW
TAF AMD
KMDW 201605Z 2016/2112 32010G15KT P6SM SCT030
     FM201800 33011G16KT P6SM BKN030
     FM202000 35012G17KT P6SM BKN035
     FM210100 35008KT P6SM BKN035=



000
FTUS43 KLOT 201600 AAB
TAFRFD
TAF AMD
KRFD 201605Z 2016/2112 33011G16KT P6SM SCT030
     FM201900 34012G17KT P6SM BKN035
     FM210200 35007KT P6SM BKN035=



000
FTUS43 KLOT 201600 AAB
TAFDPA
TAF AMD
KDPA 201605Z 2016/2112 32010G15KT P6SM SCT035
     FM201800 33011G16KT P6SM BKN030
     FM210100 35007KT P6SM BKN035=



000
FTUS43 KLOT 201600 AAB
TAFGYY
TAF AMD
KGYY 201605Z 2016/2112 31010G15KT P6SM SCT030
     FM201900 33012G17KT P6SM BKN030
     FM202100 01012G17KT P6SM OVC035
     FM210200 36012KT P6SM BKN030=



000
FTUS43 KLOT 201600 AAB
TAFORD
TAF AMD
KORD 201605Z 2016/2118 32010G15KT P6SM SCT030
     FM201800 33011G16KT P6SM BKN030
     FM202000 35012G17KT P6SM BKN035
     FM210100 35008KT P6SM BKN035
     FM211300 01011G17KT P6SM SCT025 BKN035=



000
FTUS43 KLOT 201400 AAA
TAFDPA
TAF AMD
KDPA 201406Z 2014/2112 30009KT P6SM SCT035
     FM201700 33011G16KT P6SM BKN030
     FM210200 35007KT P6SM BKN035=



000
FTUS43 KLOT 201400 AAA
TAFMDW
TAF AMD
KMDW 201406Z 2014/2112 29009KT P6SM SCT035
     FM201700 32011G16KT P6SM BKN035
     FM202000 35012G17KT P6SM BKN030
     FM202300 01007KT P6SM OVC030
     FM210400 35008KT P6SM BKN035=



000
FTUS43 KLOT 201400 AAA
TAFRFD
TAF AMD
KRFD 201406Z 2014/2112 33011G16KT P6SM SCT035
     FM201700 34012G17KT P6SM BKN030
     FM210200 35007KT P6SM BKN035=



000
FTUS43 KLOT 201400 AAA
TAFGYY
TAF AMD
KGYY 201406Z 2014/2112 26010KT P6SM FEW035
     FM201600 29011G16KT P6SM SCT035
     FM201800 32012G17KT P6SM BKN035
     FM202300 01009KT P6SM OVC030
     FM210200 36012KT P6SM BKN030=



000
FTUS43 KLOT 201400 AAA
TAFGYY
TAF AMD
KGYY 201406Z 2014/2112 26010KT P6SM FEW035
     FM201600 29011G16KT P6SM SCT035
     FM201800 32012G17KT P6SM BKN035
     FM202300 01009KT P6SM OVC030
     FM210200 36012KT P6SM BKN030=



000
FTUS43 KLOT 201400 AAA
TAFORD
TAF AMD
KORD 201406Z 2014/2118 30009KT P6SM SCT035
     FM201700 32011G16KT P6SM BKN035
     FM202000 35012G17KT P6SM BKN030
     FM202300 01007KT P6SM OVC030
     FM210400 35008KT P6SM BKN035
     FM211300 01011G17KT P6SM SCT025 BKN035=



000
FTUS43 KLOT 201100
TAFDPA
TAF
KDPA 201125Z 2012/2112 25007KT P6SM SCT070
     FM201400 29009KT P6SM SCT035
     FM201700 33010KT P6SM BKN030
     FM210200 35007KT P6SM BKN035=



000
FTUS43 KLOT 201100
TAFMDW
TAF
KMDW 201125Z 2012/2112 25008KT P6SM SCT070
     FM201400 30009KT P6SM SCT035
     FM201700 32011KT P6SM BKN035
     FM202000 35011KT P6SM BKN030
     FM202300 01007KT P6SM OVC030
     FM210400 35008KT P6SM BKN035=



000
FTUS43 KLOT 201100
TAFORD
TAF
KORD 201125Z 2012/2118 26008KT P6SM SCT070
     FM201400 30009KT P6SM SCT035
     FM201700 32011KT P6SM BKN035
     FM202000 35011KT P6SM BKN030
     FM202300 01007KT P6SM OVC030
     FM210400 35008KT P6SM BKN035
     FM211300 01011G17KT P6SM SCT025 BKN035=



000
FTUS43 KLOT 201100
TAFRFD
TAF
KRFD 201125Z 2012/2112 28007KT P6SM SCT070
     FM201400 31010KT P6SM SCT035
     FM201700 33012KT P6SM BKN030
     FM210200 35007KT P6SM BKN035=



000
FTUS43 KLOT 201100
TAFGYY
TAF
KGYY 201125Z 2012/2112 22010KT P6SM VCSH BKN070
     FM201230 25008KT P6SM SCT070
     FM201500 28009KT P6SM SCT035
     FM201800 32011KT P6SM BKN035
     FM202300 01009KT P6SM OVC030
     FM210200 36012KT P6SM BKN030=



000
FTUS43 KLOT 201000 AAB
TAFMDW
TAF AMD
KMDW 201050Z 2011/2106 22010KT P6SM VCSH BKN070
     FM201130 25008KT P6SM SCT070
     FM201300 28009KT P6SM SCT035
     FM201700 33010KT P6SM BKN035
     FM202300 01007KT P6SM OVC035
     FM210400 35008KT P6SM BKN035=



000
FTUS43 KLOT 200900 AAA
TAFGYY
TAF AMD
KGYY 200905Z 2009/2106 21009KT P6SM SCT070
     FM201300 26009KT P6SM SCT035
     FM201800 32011KT P6SM BKN035
     FM202300 01009KT P6SM OVC035
     FM210200 36012KT P6SM BKN035=



000
FTUS43 KLOT 200900 AAA
TAFORD
TAF AMD
KORD 200905Z 2009/2112 22011KT P6SM SCT070
     FM201300 28009KT P6SM SCT035
     FM201700 33010KT P6SM BKN035
     FM202300 01007KT P6SM OVC035
     FM210400 35008KT P6SM BKN035=



000
FTUS43 KLOT 200900 AAA
TAFDPA
TAF AMD
KDPA 200905Z 2009/2106 21009KT P6SM SCT070
     FM201300 28009KT P6SM SCT035
     FM201700 33010KT P6SM BKN035
     FM210200 35008KT P6SM BKN035=



000
FTUS43 KLOT 200900 AAA
TAFRFD
TAF AMD
KRFD 200905Z 2009/2106 24009KT P6SM SCT070
     FM201400 31010KT P6SM SCT035
     FM201900 33012KT P6SM BKN035
     FM210200 35008KT P6SM BKN035=



000
FTUS43 KLOT 200900 AAA
TAFGYY
TAF AMD
KGYY 200905Z 2009/2106 21009KT P6SM SCT070
     FM201300 26009KT P6SM SCT035
     FM201800 32011KT P6SM BKN035
     FM202300 01009KT P6SM OVC035
     FM210200 36012KT P6SM BKN035=



000
FTUS43 KLOT 200900 AAA
TAFMDW
TAF AMD
KMDW 200905Z 2009/2106 22011KT P6SM SCT070
     FM201300 28009KT P6SM SCT035
     FM201700 33010KT P6SM BKN035
     FM202300 01007KT P6SM OVC035
     FM210400 35008KT P6SM BKN035=



000
FTUS43 KLOT 200500
TAFORD
TAF
KORD 200520Z 2006/2112 22011KT P6SM SCT080
     FM201300 28009KT P6SM SCT035
     FM201700 33010KT P6SM BKN035
     FM202300 01007KT P6SM OVC035
     FM210400 35008KT P6SM BKN035=



000
FTUS43 KLOT 200500
TAFDPA
TAF
KDPA 200520Z 2006/2106 21010KT P6SM SCT080
     FM201300 28009KT P6SM SCT035
     FM201700 33010KT P6SM BKN035
     FM210200 35008KT P6SM BKN035=



000
FTUS43 KLOT 200500
TAFRFD
TAF
KRFD 200520Z 2006/2106 25009KT P6SM SCT080
     FM201400 31010KT P6SM SCT035
     FM201900 33012KT P6SM BKN035
     FM210200 35008KT P6SM BKN035=



000
FTUS43 KLOT 200500
TAFGYY
TAF
KGYY 200520Z 2006/2106 21011KT P6SM SCT080
     FM201300 26009KT P6SM SCT035
     FM201800 32011KT P6SM BKN035
     FM202300 01009KT P6SM OVC035
     FM210200 36012KT P6SM BKN035=



000
FTUS43 KLOT 200500
TAFMDW
TAF
KMDW 200520Z 2006/2106 22011KT P6SM SCT080
     FM201300 28009KT P6SM SCT035
     FM201700 33010KT P6SM BKN035
     FM202300 01007KT P6SM OVC035
     FM210400 35008KT P6SM BKN035=



000
FTUS43 KLOT 200500
TAFGYY
TAF
KGYY 200520Z 2006/2106 21011KT P6SM SCT080
     FM201300 26009KT P6SM SCT035
     FM201800 32011KT P6SM BKN035
     FM202300 01009KT P6SM OVC035
     FM210200 36012KT P6SM BKN035=



000
FTUS43 KLOT 200200 AAA
TAFGYY
TAF AMD
KGYY 200300Z 2003/2024 22010G19KT P6SM SCT080 SCT250
     FM200600 25010KT P6SM SCT100
     FM201500 30009KT P6SM SCT035
     FM201900 34010KT P6SM BKN035=



000
FTUS43 KLOT 200200 AAA
TAFORD
TAF AMD
KORD 200300Z 2003/2106 21010G20KT P6SM SCT080 SCT250
     FM200800 25010KT P6SM SCT080
     FM201400 30009KT P6SM SCT035
     FM201800 33010KT P6SM BKN035
     FM210400 35007KT P6SM SCT035=



000
FTUS43 KLOT 200200 AAA
TAFDPA
TAF AMD
KDPA 200300Z 2003/2024 21010G20KT P6SM SCT080 SCT250
     FM200800 25009KT P6SM SCT080
     FM201400 30009KT P6SM SCT035
     FM201800 33009KT P6SM BKN035=



000
FTUS43 KLOT 200200 AAA
TAFMDW
TAF AMD
KMDW 200300Z 2003/2024 21012G20KT P6SM SCT080 SCT250
     FM200800 25010KT P6SM SCT080
     FM201400 30009KT P6SM SCT035
     FM201800 33010KT P6SM BKN035=



000
FTUS43 KLOT 200200 AAA
TAFRFD
TAF AMD
KRFD 200300Z 2003/2024 20010G20KT P6SM SCT100 SCT250
     FM200700 25009KT P6SM SCT080
     FM201400 30009KT P6SM SCT035
     FM201900 33012KT P6SM BKN035=



000
FTUS43 KLOT 200200 AAA
TAFGYY
TAF AMD
KGYY 200300Z 2003/2024 22010G19KT P6SM SCT080 SCT250
     FM200600 25010KT P6SM SCT100
     FM201500 30009KT P6SM SCT035
     FM201900 34010KT P6SM BKN035=



000
FTUS43 KLOT 192300
TAFGYY
TAF
KGYY 192334Z 2000/2024 22010G19KT P6SM SCT100 SCT250
     FM200600 25010KT P6SM SCT100
     FM201500 30009KT P6SM SCT035
     FM201900 34010KT P6SM BKN035=



000
FTUS43 KLOT 192300
TAFRFD
TAF
KRFD 192334Z 2000/2024 20012G20KT P6SM SCT120 SCT250
     FM200700 25009KT P6SM SCT080
     FM201400 30009KT P6SM SCT035
     FM201900 33012KT P6SM BKN035=



000
FTUS43 KLOT 192300
TAFMDW
TAF
KMDW 192334Z 2000/2024 20012G20KT P6SM SCT100 SCT250
     FM200800 25010KT P6SM SCT080
     FM201400 30009KT P6SM SCT035
     FM201800 33010KT P6SM BKN035=



000
FTUS43 KLOT 192300
TAFGYY
TAF
KGYY 192334Z 2000/2024 22010G19KT P6SM SCT100 SCT250
     FM200600 25010KT P6SM SCT100
     FM201500 30009KT P6SM SCT035
     FM201900 34010KT P6SM BKN035=



000
FTUS43 KLOT 192300
TAFGYY
TAF
KGYY 192334Z 2000/2024 22010G19KT P6SM SCT100 SCT250
     FM200600 25010KT P6SM SCT100
     FM201500 30009KT P6SM SCT035
     FM201900 34010KT P6SM BKN035=



000
FTUS43 KLOT 192300
TAFDPA
TAF
KDPA 192334Z 2000/2024 20010G20KT P6SM SCT100 SCT250
     FM200800 25009KT P6SM SCT080
     FM201400 30009KT P6SM SCT035
     FM201800 33009KT P6SM BKN035=



000
FTUS43 KLOT 192300
TAFGYY
TAF
KGYY 192334Z 2000/2024 22010G19KT P6SM SCT100 SCT250
     FM200600 25010KT P6SM SCT100
     FM201500 30009KT P6SM SCT035
     FM201900 34010KT P6SM BKN035=



000
FTUS43 KLOT 192300
TAFRFD
TAF
KRFD 192334Z 2000/2024 20012G20KT P6SM SCT120 SCT250
     FM200700 25009KT P6SM SCT080
     FM201400 30009KT P6SM SCT035
     FM201900 33012KT P6SM BKN035=



000
FTUS43 KLOT 192300
TAFDPA
TAF
KDPA 192334Z 2000/2024 20010G20KT P6SM SCT100 SCT250
     FM200800 25009KT P6SM SCT080
     FM201400 30009KT P6SM SCT035
     FM201800 33009KT P6SM BKN035=



000
FTUS43 KLOT 192300
TAFMDW
TAF
KMDW 192334Z 2000/2024 20012G20KT P6SM SCT100 SCT250
     FM200800 25010KT P6SM SCT080
     FM201400 30009KT P6SM SCT035
     FM201800 33010KT P6SM BKN035=



000
FTUS43 KLOT 192300
TAFORD
TAF
KORD 192334Z 2000/2106 20012G20KT P6SM SCT100 SCT250
     FM200800 25010KT P6SM SCT080
     FM201400 30009KT P6SM SCT035
     FM201800 33010KT P6SM BKN035
     FM210400 35007KT P6SM SCT035=



000
FTUS43 KLOT 192300
TAFORD
TAF
KORD 192334Z 2000/2106 20012G20KT P6SM SCT100 SCT250
     FM200800 25010KT P6SM SCT080
     FM201400 30009KT P6SM SCT035
     FM201800 33010KT P6SM BKN035
     FM210400 35007KT P6SM SCT035=



000
FTUS43 KLOT 192200 AAD
TAFGYY
TAF AMD
KGYY 192200Z 1922/2018 22010G19KT P6SM SCT120 BKN200
     FM200600 25010KT P6SM BKN100
     FM201400 30009KT P6SM SCT035=



000
FTUS43 KLOT 192200 AAC
TAFDPA
TAF AMD
KDPA 192200Z 1922/2018 20010G18KT P6SM SCT120 BKN200
     FM200000 22013G22KT P6SM BKN100
     FM200800 25009KT P6SM BKN080
     FM201400 30009KT P6SM SCT035=



000
FTUS43 KLOT 192200 AAD
TAFGYY
TAF AMD
KGYY 192200Z 1922/2018 22010G19KT P6SM SCT120 BKN200
     FM200600 25010KT P6SM BKN100
     FM201400 30009KT P6SM SCT035=



000
FTUS43 KLOT 192200 AAC
TAFORD
TAF AMD
KORD 192200Z 1922/2024 21012G18KT P6SM SCT120 BKN200
     FM200000 22013G22KT P6SM BKN120
     FM200800 25010KT P6SM BKN080
     FM201400 30009KT P6SM SCT035
     FM201800 32010KT P6SM BKN050=



000
FTUS43 KLOT 192200 AAB
TAFRFD
TAF AMD
KRFD 192200Z 1922/2018 21012G19KT P6SM SCT120 BKN200
     FM200000 23013G22KT P6SM BKN100
     FM200700 25009KT P6SM BKN080
     FM201400 30009KT P6SM SCT035=



000
FTUS43 KLOT 192200 AAC
TAFMDW
TAF AMD
KMDW 192200Z 1922/2018 21012G18KT P6SM SCT120 BKN200
     FM200000 22014G22KT P6SM BKN120
     FM200800 25010KT P6SM BKN080
     FM201400 30009KT P6SM SCT035=



000
FTUS43 KLOT 191900 AAB
TAFDPA
TAF AMD
KDPA 191952Z 1920/2018 22012G18KT P6SM SCT025 BKN200
     FM200100 22013G22KT P6SM BKN100
     FM200800 25009KT P6SM BKN080
     FM201400 30009KT P6SM SCT035=



000
FTUS43 KLOT 191900 AAA
TAFRFD
TAF AMD
KRFD 191952Z 1920/2018 22012G19KT P6SM SCT120 BKN200
     FM200000 23013G22KT P6SM BKN100
     FM200700 25009KT P6SM BKN080
     FM201400 30009KT P6SM SCT035=



000
FTUS43 KLOT 191900 AAB
TAFMDW
TAF AMD
KMDW 191952Z 1920/2018 22012G18KT P6SM SCT028 BKN200
     FM200000 22014G22KT P6SM BKN120
     FM200800 25010KT P6SM BKN080
     FM201400 30009KT P6SM SCT035=



000
FTUS43 KLOT 191900 AAC
TAFGYY
TAF AMD
KGYY 191952Z 1920/2018 22012G19KT P6SM SCT025 BKN200
     FM200600 25010KT P6SM BKN100
     FM201400 30009KT P6SM SCT035=



000
FTUS43 KLOT 191900 AAB
TAFORD
TAF AMD
KORD 191952Z 1920/2024 22012G18KT P6SM SCT025 BKN200
     FM200000 22013G22KT P6SM BKN120
     FM200800 25010KT P6SM BKN080
     FM201400 30009KT P6SM SCT035
     FM201800 32010KT P6SM BKN050=



000
FTUS43 KLOT 191900 AAC
TAFGYY
TAF AMD
KGYY 191952Z 1920/2018 22012G19KT P6SM SCT025 BKN200
     FM200600 25010KT P6SM BKN100
     FM201400 30009KT P6SM SCT035=



000
FTUS43 KLOT 191900 AAB
TAFGYY
TAF AMD
KGYY 191902Z 1919/2018 22012G19KT P6SM SCT025 BKN200
     FM200600 25010KT P6SM BKN100
     FM201400 30009KT P6SM SCT035=



000
FTUS43 KLOT 191900 AAB
TAFGYY
TAF AMD
KGYY 191902Z 1919/2018 22012G19KT P6SM SCT025 BKN200
     FM200600 25010KT P6SM BKN100
     FM201400 30009KT P6SM SCT035=



000
FTUS43 KLOT 191800 AAA
TAFORD
TAF AMD
KORD 191829Z 1918/2024 22012G18KT P6SM SCT025 BKN200
     FM200000 22013G22KT P6SM BKN120
     FM200800 25010KT P6SM BKN080
     FM201400 30009KT P6SM SCT035
     FM201800 32010KT P6SM BKN050=



000
FTUS43 KLOT 191800 AAA
TAFMDW
TAF AMD
KMDW 191829Z 1918/2018 22012G18KT P6SM SCT028 BKN200
     FM200000 22014G22KT P6SM BKN120
     FM200800 25010KT P6SM BKN080
     FM201400 30009KT P6SM SCT035=



000
FTUS43 KLOT 191800 AAA
TAFDPA
TAF AMD
KDPA 191827Z 1918/2018 22012G18KT P6SM SCT025 BKN200
     FM200100 22013G22KT P6SM BKN100
     FM200800 25009KT P6SM BKN080
     FM201400 30009KT P6SM SCT035=



000
FTUS43 KLOT 191700
TAFGYY
TAF
KGYY 191729Z 1918/2018 22012KT P6SM SCT025 BKN200
      TEMPO 1918/1920 BKN025 BKN250
     FM200600 25010KT P6SM BKN100
     FM201400 30009KT P6SM SCT035=



000
FTUS43 KLOT 191700
TAFMDW
TAF
KMDW 191729Z 1918/2018 22012G18KT P6SM SCT025 BKN200
      TEMPO 1918/1920 BKN025 BKN250
     FM200000 22014G22KT P6SM BKN120
     FM200800 25010KT P6SM BKN080
     FM201400 30009KT P6SM SCT035=



000
FTUS43 KLOT 191700
TAFRFD
TAF
KRFD 191729Z 1918/2018 22012G19KT P6SM SCT120 BKN200
     FM200000 23013G22KT P6SM BKN100
     FM200700 25009KT P6SM BKN080
     FM201400 30009KT P6SM SCT035=



000
FTUS43 KLOT 191700
TAFORD
TAF
KORD 191729Z 1918/2024 22012G18KT P6SM SCT025 BKN200
      TEMPO 1918/1920 BKN025 BKN200
     FM200000 22013G22KT P6SM BKN120
     FM200800 25010KT P6SM BKN080
     FM201400 30009KT P6SM SCT035
     FM201800 32010KT P6SM BKN050=



000
FTUS43 KLOT 191700
TAFDPA
TAF
KDPA 191729Z 1918/2018 22012KT P6SM BKN025 BKN200
     FM191930 22012G19KT P6SM SCT025 BKN200
     FM200100 22013G22KT P6SM BKN100
     FM200800 25009KT P6SM BKN080
     FM201400 30009KT P6SM SCT035=



000
FTUS43 KLOT 191700 AAA
TAFGYY
TAF AMD
KGYY 191729Z 1917/2018 22012KT P6SM SCT025 BKN200
      TEMPO 1919/1921 BKN025 BKN250
     FM200600 25010KT P6SM BKN100
     FM201400 30009KT P6SM SCT035=



000
FTUS43 KLOT 191700 AAA
TAFGYY
TAF AMD
KGYY 191729Z 1917/2018 22012KT P6SM SCT025 BKN200
      TEMPO 1919/1921 BKN025 BKN250
     FM200600 25010KT P6SM BKN100
     FM201400 30009KT P6SM SCT035=



000
FTUS43 KLOT 191600 AAC
TAFRFD
TAF AMD
KRFD 191619Z 1916/2012 22011KT P6SM SCT020 BKN250
     FM191900 22013G20KT P6SM SCT120 BKN200
     FM200000 23009KT P6SM BKN100=



000
FTUS43 KLOT 191600 AAC
TAFMDW
TAF AMD
KMDW 191619Z 1916/2012 22011KT P6SM BKN250
     FM191800 22012G19KT P6SM SCT020 BKN200
     FM200000 22013KT P6SM BKN120
     FM200600 24009KT P6SM BKN080=



000
FTUS43 KLOT 191600 AAC
TAFGYY
TAF AMD
KGYY 191619Z 1916/2012 22008KT P6SM BKN250
     FM191900 22012KT P6SM SCT020 BKN200
     FM200600 24008KT P6SM BKN100=



000
FTUS43 KLOT 191600 AAC
TAFORD
TAF AMD
KORD 191619Z 1916/2018 22011KT P6SM BKN250
     FM191800 22012G19KT P6SM SCT020 BKN200
     FM200000 22013KT P6SM BKN120
     FM200600 24009KT P6SM BKN080
     FM201400 30011KT P6SM SCT035=



000
FTUS43 KLOT 191600 AAC
TAFDPA
TAF AMD
KDPA 191619Z 1916/2012 22010KT P6SM BKN250
     FM191800 22013G20KT P6SM SCT020 BKN200
     FM200100 23010KT P6SM BKN100=



000
FTUS43 KLOT 191600 AAC
TAFGYY
TAF AMD
KGYY 191619Z 1916/2012 22008KT P6SM BKN250
     FM191900 22012KT P6SM SCT020 BKN200
     FM200600 24008KT P6SM BKN100=



000
FTUS43 KLOT 191600 AAB
TAFGYY
TAF AMD
KGYY 191604Z 1916/2012 22008KT P6SM BKN250
     FM191900 22012KT P6SM SCT120 BKN200
     FM200600 24008KT P6SM BKN100=



000
FTUS43 KLOT 191600 AAB
TAFMDW
TAF AMD
KMDW 191604Z 1916/2012 22011KT P6SM BKN250
     FM191800 22012G19KT P6SM SCT120 BKN200
     FM200000 22013KT P6SM BKN120
     FM200600 24009KT P6SM BKN080=



000
FTUS43 KLOT 191600 AAB
TAFRFD
TAF AMD
KRFD 191604Z 1916/2012 22011KT P6SM BKN250
     FM191800 22013G20KT P6SM SCT120 BKN200
     FM200000 23009KT P6SM BKN100=



000
FTUS43 KLOT 191600 AAB
TAFORD
TAF AMD
KORD 191604Z 1916/2018 22011KT P6SM BKN250
     FM191800 22012G19KT P6SM SCT120 BKN200
     FM200000 22013KT P6SM BKN120
     FM200600 24009KT P6SM BKN080
     FM201400 30011KT P6SM SCT035=



000
FTUS43 KLOT 191600 AAB
TAFDPA
TAF AMD
KDPA 191604Z 1916/2012 22010KT P6SM BKN250
     FM191800 22013G20KT P6SM SCT120 BKN200
     FM200100 23010KT P6SM BKN100=



000
FTUS43 KLOT 191600 AAB
TAFGYY
TAF AMD
KGYY 191604Z 1916/2012 22008KT P6SM BKN250
     FM191900 22012KT P6SM SCT120 BKN200
     FM200600 24008KT P6SM BKN100=



000
FTUS43 KLOT 191300 AAA
TAFGYY
TAF AMD
KGYY 191356Z 1914/2012 22008KT P6SM BKN250
     FM191900 22012KT P6SM SCT120 BKN200
     FM200600 24008KT P6SM BKN100=



000
FTUS43 KLOT 191300 AAA
TAFGYY
TAF AMD
KGYY 191356Z 1914/2012 22008KT P6SM BKN250
     FM191900 22012KT P6SM SCT120 BKN200
     FM200600 24008KT P6SM BKN100=



000
FTUS43 KLOT 191300 AAA
TAFRFD
TAF AMD
KRFD 191356Z 1914/2012 00000KT P6SM BCFG BKN250
     FM191500 22008KT P6SM BKN250
     FM191800 22013G20KT P6SM SCT120 BKN200
     FM200000 23009KT P6SM BKN100=



000
FTUS43 KLOT 191300 AAA
TAFMDW
TAF AMD
KMDW 191356Z 1914/2012 22008KT P6SM BKN250
     FM191800 22012G19KT P6SM SCT120 BKN200
     FM200000 22013KT P6SM BKN120
     FM200600 24009KT P6SM BKN080=



000
FTUS43 KLOT 191300 AAA
TAFORD
TAF AMD
KORD 191356Z 1914/2018 22008KT P6SM BKN250
     FM191800 22012G19KT P6SM SCT120 BKN200
     FM200000 22013KT P6SM BKN120
     FM200600 24009KT P6SM BKN080
     FM201400 30011KT P6SM SCT035=



000
FTUS43 KLOT 191300 AAA
TAFDPA
TAF AMD
KDPA 191356Z 1914/2012 00000KT P6SM BKN250
     FM191500 22008KT P6SM BKN250
     FM191800 22013G20KT P6SM SCT120 BKN200
     FM200100 23010KT P6SM BKN100=



000
FTUS43 KLOT 191100
TAFGYY
TAF
KGYY 191120Z 1912/2012 00000KT P6SM SCT030 SCT250
     FM191500 21008KT P6SM SCT250
     FM191900 22012KT P6SM SCT120 BKN200
     FM200600 24008KT P6SM BKN100=



000
FTUS43 KLOT 191100
TAFMDW
TAF
KMDW 191120Z 1912/2012 VRB02KT P6SM FEW250
     FM191500 22008KT P6SM SCT250
     FM191800 22012KT P6SM SCT120 BKN200
      TEMPO 1919/1923 22014G20KT
     FM200600 24008KT P6SM BKN100=



000
FTUS43 KLOT 191100
TAFRFD
TAF
KRFD 191120Z 1912/2012 00000KT P6SM MIFG SCT250
     FM191400 22008KT P6SM SCT250
     FM191800 22012KT P6SM SCT120 BKN200
      TEMPO 1919/1923 22014G20KT
     FM200000 23008KT P6SM BKN100=



000
FTUS43 KLOT 191100
TAFGYY
TAF
KGYY 191120Z 1912/2012 00000KT P6SM SCT030 SCT250
     FM191500 21008KT P6SM SCT250
     FM191900 22012KT P6SM SCT120 BKN200
     FM200600 24008KT P6SM BKN100=



000
FTUS43 KLOT 191100
TAFORD
TAF
KORD 191120Z 1912/2018 VRB02KT P6SM SCT250
     FM191500 22008KT P6SM SCT250
     FM191800 22012KT P6SM SCT120 BKN200
      TEMPO 1919/1923 22014G20KT
     FM200600 24008KT P6SM BKN100
     FM201400 30011KT P6SM SCT035=



000
FTUS43 KLOT 191100
TAFDPA
TAF
KDPA 191120Z 1912/2012 00000KT P6SM BCFG SCT250
     FM191400 22008KT P6SM SCT250
     FM191900 22012KT P6SM SCT120 BKN200
      TEMPO 1919/1923 22014G20KT
     FM200100 23008KT P6SM BKN100=



000
FTUS43 KLOT 190800 AAA
TAFGYY
TAF AMD
KGYY 190857Z 1909/2006 00000KT P6SM SCT030 SCT250
     FM191500 21008KT P6SM SCT250
     FM191900 22012G18KT P6SM SCT120 BKN200=



000
FTUS43 KLOT 190800 AAA
TAFORD
TAF AMD
KORD 190857Z 1909/2012 VRB02KT P6SM SCT250
     FM191500 22008KT P6SM SCT250
     FM191900 22012G18KT P6SM SCT120 BKN200
     FM200500 23008KT P6SM BKN100=



000
FTUS43 KLOT 190800 AAA
TAFGYY
TAF AMD
KGYY 190857Z 1909/2006 00000KT P6SM SCT030 SCT250
     FM191500 21008KT P6SM SCT250
     FM191900 22012G18KT P6SM SCT120 BKN200=



000
FTUS43 KLOT 190800 AAA
TAFMDW
TAF AMD
KMDW 190857Z 1909/2006 VRB02KT P6SM FEW250
     FM191500 22008KT P6SM SCT250
     FM191900 22012G18KT P6SM SCT120 BKN200=



000
FTUS43 KLOT 190800 AAA
TAFRFD
TAF AMD
KRFD 190857Z 1909/2006 00000KT P6SM MIFG SCT250
     FM191400 22008KT P6SM SCT250
     FM191800 22012G18KT P6SM SCT120 BKN200
     FM200000 21008KT P6SM BKN100=



000
FTUS43 KLOT 190800 AAA
TAFDPA
TAF AMD
KDPA 190857Z 1909/2006 00000KT P6SM MIFG SCT250
     FM191400 22008KT P6SM SCT250
     FM191900 22012G18KT P6SM SCT120 BKN200
     FM200100 23008KT P6SM BKN100=



000
FTUS43 KLOT 190500
TAFRFD
TAF
KRFD 190520Z 1906/2006 00000KT P6SM BCFG SCT250
     FM191500 22008KT P6SM SCT250
     FM191800 22012G18KT P6SM SCT120 BKN200
     FM200000 21008KT P6SM BKN100=



000
FTUS43 KLOT 190500
TAFGYY
TAF
KGYY 190520Z 1906/2006 00000KT P6SM SCT030 SCT250
      TEMPO 1906/1908 BKN030
     FM191500 21008KT P6SM SCT250
     FM191900 22012G18KT P6SM SCT120 BKN200=



000
FTUS43 KLOT 190500
TAFDPA
TAF
KDPA 190520Z 1906/2006 00000KT P6SM BCFG SCT250
     FM190800 00000KT 3SM MIFG BR SCT250
     FM191400 22008KT P6SM SCT250
     FM191900 22012G18KT P6SM SCT120 BKN200
     FM200100 23008KT P6SM BKN100=



000
FTUS43 KLOT 190500
TAFGYY
TAF
KGYY 190520Z 1906/2006 00000KT P6SM SCT030 SCT250
      TEMPO 1906/1908 BKN030
     FM191500 21008KT P6SM SCT250
     FM191900 22012G18KT P6SM SCT120 BKN200=



000
FTUS43 KLOT 190500
TAFMDW
TAF
KMDW 190520Z 1906/2006 VRB03KT P6SM FEW250
     FM191500 22008KT P6SM SCT250
     FM191900 22012G18KT P6SM SCT120 BKN200=



000
FTUS43 KLOT 190500
TAFORD
TAF
KORD 190520Z 1906/2012 VRB03KT P6SM SCT250
     FM191500 22008KT P6SM SCT250
     FM191900 22012G18KT P6SM SCT120 BKN200
     FM200500 23008KT P6SM BKN100=



000
FTUS43 KLOT 190300 AAA
TAFGYY
TAF AMD
KGYY 190300Z 1903/1924 32005KT P6SM BKN028
     FM190400 VRB05KT P6SM SCT028 SCT250
     FM190900 VRB03KT P6SM MIFG FEW250
     FM191400 23008KT P6SM SCT250
     FM192000 22012G18KT P6SM SCT120 BKN200=



000
FTUS43 KLOT 190300 AAA
TAFORD
TAF AMD
KORD 190300Z 1903/2006 VRB03KT P6SM SCT250
     FM191600 22008KT P6SM SCT250
     FM191900 22012G18KT P6SM SCT120 BKN200=



000
FTUS43 KLOT 190300 AAA
TAFMDW
TAF AMD
KMDW 190300Z 1903/1924 34004KT P6SM FEW028 SCT250
     FM190800 25003KT P6SM FEW250
     FM191600 22008KT P6SM SCT250
     FM191900 22012G18KT P6SM SCT120 BKN200=



000
FTUS43 KLOT 190300 AAA
TAFGYY
TAF AMD
KGYY 190300Z 1903/1924 32005KT P6SM BKN028
     FM190400 VRB05KT P6SM SCT028 SCT250
     FM190900 VRB03KT P6SM MIFG FEW250
     FM191400 23008KT P6SM SCT250
     FM192000 22012G18KT P6SM SCT120 BKN200=



000
FTUS43 KLOT 190300 AAA
TAFRFD
TAF AMD
KRFD 190300Z 1903/1924 00000KT P6SM SCT250
     FM190800 00000KT P6SM MIFG FEW250
     FM191500 22008KT P6SM SCT250
     FM191800 22012G18KT P6SM SCT120 BKN200=



000
FTUS43 KLOT 190300 AAA
TAFDPA
TAF AMD
KDPA 190300Z 1903/1924 00000KT P6SM SCT250
     FM190800 00000KT P6SM MIFG FEW250
     FM191500 22008KT P6SM SCT250
     FM191900 22012G18KT P6SM SCT120 BKN200=



000
FTUS43 KLOT 182300
TAFMDW
TAF
KMDW 182331Z 1900/1924 36005KT P6SM FEW040
     FM190800 25003KT P6SM FEW200
     FM191600 23008KT P6SM FEW250
     FM191900 22012G18KT P6SM SCT120=



000
FTUS43 KLOT 182300
TAFGYY
TAF
KGYY 182331Z 1900/1924 36012G18KT P6SM BKN035
     FM190200 36007KT P6SM BKN040
     FM190900 VRB03KT P6SM MIFG FEW040
     FM191300 VRB03KT P6SM FEW200
     FM191600 23008KT P6SM FEW250
     FM192000 22012G18KT P6SM SCT120=



000
FTUS43 KLOT 182300
TAFGYY
TAF
KGYY 182331Z 1900/1924 36012G18KT P6SM BKN035
     FM190200 36007KT P6SM BKN040
     FM190900 VRB03KT P6SM MIFG FEW040
     FM191300 VRB03KT P6SM FEW200
     FM191600 23008KT P6SM FEW250
     FM192000 22012G18KT P6SM SCT120=



000
FTUS43 KLOT 182300
TAFDPA
TAF
KDPA 182331Z 1900/1924 36003KT P6SM FEW035
     FM190800 00000KT P6SM MIFG FEW200
     FM191500 23008KT P6SM FEW250
     FM191900 22012G18KT P6SM SCT120=



000
FTUS43 KLOT 182300
TAFORD
TAF
KORD 182331Z 1900/2006 36005KT P6SM FEW040
     FM190800 VRB03KT P6SM FEW200
     FM191600 23008KT P6SM FEW250
     FM191900 22012G18KT P6SM SCT120=



000
FTUS43 KLOT 182300
TAFRFD
TAF
KRFD 182331Z 1900/1924 05003KT P6SM FEW040
     FM190800 00000KT P6SM MIFG FEW200
     FM191500 23008KT P6SM FEW250
     FM191800 22012G18KT P6SM SCT120=



000
FTUS43 KLOT 182100 AAB
TAFGYY
TAF AMD
KGYY 182146Z 1822/1918 34011G20KT P6SM BKN020 OVC030
     FM182300 36012G18KT P6SM BKN035
     FM190200 36008KT P6SM BKN040
     FM190900 36003KT P6SM FEW040
     FM191300 VRB03KT P6SM FEW200
     FM191600 23008KT P6SM FEW250=



000
FTUS43 KLOT 182100 AAB
TAFORD
TAF AMD
KORD 182146Z 1822/1924 36011KT P6SM SCT030 BKN040
     FM190000 36003KT P6SM FEW040
     FM190800 VRB03KT P6SM FEW200
     FM191600 23008KT P6SM FEW250
     FM191900 22010G15KT P6SM SCT130=



000
FTUS43 KLOT 182100 AAB
TAFDPA
TAF AMD
KDPA 182146Z 1822/1918 36010KT P6SM BKN035
     FM190000 36003KT P6SM FEW040
     FM190800 VRB03KT P6SM FEW200
     FM191600 23008KT P6SM FEW250=



000
FTUS43 KLOT 182100 AAB
TAFMDW
TAF AMD
KMDW 182146Z 1822/1918 02008KT P6SM SCT030 BKN040
     FM190000 36003KT P6SM FEW040
     FM190800 VRB03KT P6SM FEW200
     FM191600 23008KT P6SM FEW250=



000
FTUS43 KLOT 182100 AAB
TAFRFD
TAF AMD
KRFD 182146Z 1822/1918 36009KT P6SM FEW030
     FM190000 36003KT P6SM FEW040
     FM190800 VRB03KT P6SM FEW200
     FM191600 23008KT P6SM FEW250=



000
FTUS43 KLOT 182100 AAB
TAFGYY
TAF AMD
KGYY 182146Z 1822/1918 34011G20KT P6SM BKN020 OVC030
     FM182300 36012G18KT P6SM BKN035
     FM190200 36008KT P6SM BKN040
     FM190900 36003KT P6SM FEW040
     FM191300 VRB03KT P6SM FEW200
     FM191600 23008KT P6SM FEW250=



000
FTUS43 KLOT 181900 AAA
TAFGYY
TAF AMD
KGYY 181942Z 1820/1918 35011G16KT P6SM -RA BKN020 OVC025
     FM182200 36012KT P6SM BKN030
     FM190200 36008KT P6SM BKN040
     FM190900 36003KT P6SM FEW040
     FM191300 VRB03KT P6SM FEW200
     FM191600 23008KT P6SM FEW250=



000
FTUS43 KLOT 181900 AAA
TAFGYY
TAF AMD
KGYY 181942Z 1820/1918 35011G16KT P6SM -RA BKN020 OVC025
     FM182200 36012KT P6SM BKN030
     FM190200 36008KT P6SM BKN040
     FM190900 36003KT P6SM FEW040
     FM191300 VRB03KT P6SM FEW200
     FM191600 23008KT P6SM FEW250=



000
FTUS43 KLOT 181900 AAA
TAFORD
TAF AMD
KORD 181942Z 1820/1924 36008KT P6SM BKN025 BKN040
     FM182200 36008KT P6SM BKN040
     FM190000 36003KT P6SM FEW040
     FM190800 VRB03KT P6SM FEW200
     FM191600 23008KT P6SM FEW250
     FM191900 22010G15KT P6SM SCT130=



000
FTUS43 KLOT 181900 AAA
TAFMDW
TAF AMD
KMDW 181942Z 1820/1918 36008KT P6SM BKN025 BKN040
     FM182200 36008KT P6SM BKN040
     FM190000 36003KT P6SM FEW040
     FM190800 VRB03KT P6SM FEW200
     FM191600 23008KT P6SM FEW250=



000
FTUS43 KLOT 181900 AAA
TAFDPA
TAF AMD
KDPA 181942Z 1820/1918 36008KT P6SM BKN030 BKN040
     FM182200 36008KT P6SM BKN040
     FM190000 36003KT P6SM FEW040
     FM190800 VRB03KT P6SM FEW200
     FM191600 23008KT P6SM FEW250=



000
FTUS43 KLOT 181900 AAA
TAFRFD
TAF AMD
KRFD 181942Z 1820/1918 36007KT P6SM BKN025 OVC035
     FM182200 36008KT P6SM BKN040
     FM190000 36003KT P6SM FEW040
     FM190800 VRB03KT P6SM FEW200
     FM191600 23008KT P6SM FEW250=



000
FTUS43 KLOT 181900 AAA
TAFMDW
TAF AMD
KMDW 181942Z 1820/1918 36008KT P6SM BKN025 BKN040
     FM182200 36008KT P6SM BKN040
     FM190000 36003KT P6SM FEW040
     FM190800 VRB03KT P6SM FEW200
     FM191600 23008KT P6SM FEW250=



000
FTUS43 KLOT 181900 AAA
TAFGYY
TAF AMD
KGYY 181942Z 1820/1918 35011G16KT P6SM -RA BKN020 OVC025
     FM182200 36012KT P6SM BKN030
     FM190200 36008KT P6SM BKN040
     FM190900 36003KT P6SM FEW040
     FM191300 VRB03KT P6SM FEW200
     FM191600 23008KT P6SM FEW250=



000
FTUS43 KLOT 181900 AAA
TAFDPA
TAF AMD
KDPA 181942Z 1820/1918 36008KT P6SM BKN030 BKN040
     FM182200 36008KT P6SM BKN040
     FM190000 36003KT P6SM FEW040
     FM190800 VRB03KT P6SM FEW200
     FM191600 23008KT P6SM FEW250=



000
FTUS43 KLOT 181900 AAA
TAFRFD
TAF AMD
KRFD 181942Z 1820/1918 36007KT P6SM BKN025 OVC035
     FM182200 36008KT P6SM BKN040
     FM190000 36003KT P6SM FEW040
     FM190800 VRB03KT P6SM FEW200
     FM191600 23008KT P6SM FEW250=



000
FTUS43 KLOT 181900 AAA
TAFGYY
TAF AMD
KGYY 181942Z 1820/1918 35011G16KT P6SM -RA BKN020 OVC025
     FM182200 36012KT P6SM BKN030
     FM190200 36008KT P6SM BKN040
     FM190900 36003KT P6SM FEW040
     FM191300 VRB03KT P6SM FEW200
     FM191600 23008KT P6SM FEW250=



000
FTUS43 KLOT 181900 AAA
TAFORD
TAF AMD
KORD 181942Z 1820/1924 36008KT P6SM BKN025 BKN040
     FM182200 36008KT P6SM BKN040
     FM190000 36003KT P6SM FEW040
     FM190800 VRB03KT P6SM FEW200
     FM191600 23008KT P6SM FEW250
     FM191900 22010G15KT P6SM SCT130=



000
FTUS43 KLOT 181700 RRA
TAFRFD
TAF
KRFD 181742Z 1818/1918 36011G16KT P6SM BKN025 OVC035
     FM182200 36008KT P6SM BKN040
     FM190200 36003KT P6SM FEW040
     FM190800 VRB03KT P6SM FEW200
     FM191600 23008KT P6SM FEW250=



000
FTUS43 KLOT 181700 RRA
TAFGYY
TAF
KGYY 181742Z 1818/1918 36011G16KT P6SM -RA BKN020 OVC025
     FM182200 36012KT P6SM BKN030
     FM190200 36008KT P6SM BKN040
     FM190900 36003KT P6SM FEW040
     FM191300 VRB03KT P6SM FEW200
     FM191600 23008KT P6SM FEW250=



000
FTUS43 KLOT 181700 RRA
TAFMDW
TAF
KMDW 181742Z 1818/1918 36011G16KT P6SM BKN025 OVC035
     FM182200 36008KT P6SM BKN040
     FM190200 36003KT P6SM FEW040
     FM190800 VRB03KT P6SM FEW200
     FM191600 23008KT P6SM FEW250=



000
FTUS43 KLOT 181700 RRA
TAFORD
TAF
KORD 181742Z 1818/1924 36011G16KT P6SM BKN025 OVC035
     FM182200 36008KT P6SM BKN040
     FM190200 36003KT P6SM FEW040
     FM190800 VRB03KT P6SM FEW200
     FM191600 23008KT P6SM FEW250
     FM191900 22010G15KT P6SM SCT130=



000
FTUS43 KLOT 181700 RRA
TAFGYY
TAF
KGYY 181742Z 1818/1918 36011G16KT P6SM -RA BKN020 OVC025
     FM182200 36012KT P6SM BKN030
     FM190200 36008KT P6SM BKN040
     FM190900 36003KT P6SM FEW040
     FM191300 VRB03KT P6SM FEW200
     FM191600 23008KT P6SM FEW250=



000
FTUS43 KLOT 181700 RRA
TAFDPA
TAF
KDPA 181742Z 1818/1918 36011G16KT P6SM BKN025 OVC035
     FM182200 36008KT P6SM BKN040
     FM190200 36003KT P6SM FEW040
     FM190800 VRB03KT P6SM FEW200
     FM191600 23008KT P6SM FEW250=



000
FTUS43 KLOT 181700 RRA
TAFMDW
TAF
KMDW 181742Z 1818/1918 36011G16KT P6SM BKN025 OVC035
     FM182200 36008KT P6SM BKN040
     FM190200 36003KT P6SM FEW040
     FM190800 VRB03KT P6SM FEW200
     FM191600 23008KT P6SM FEW250=



000
FTUS43 KLOT 181700 RRA
TAFGYY
TAF
KGYY 181742Z 1818/1918 36011G16KT P6SM -RA BKN020 OVC025
     FM182200 36012KT P6SM BKN030
     FM190200 36008KT P6SM BKN040
     FM190900 36003KT P6SM FEW040
     FM191300 VRB03KT P6SM FEW200
     FM191600 23008KT P6SM FEW250=



000
FTUS43 KLOT 181700 RRA
TAFRFD
TAF
KRFD 181742Z 1818/1918 36011G16KT P6SM BKN025 OVC035
     FM182200 36008KT P6SM BKN040
     FM190200 36003KT P6SM FEW040
     FM190800 VRB03KT P6SM FEW200
     FM191600 23008KT P6SM FEW250=



000
FTUS43 KLOT 181700 RRA
TAFGYY
TAF
KGYY 181742Z 1818/1918 36011G16KT P6SM -RA BKN020 OVC025
     FM182200 36012KT P6SM BKN030
     FM190200 36008KT P6SM BKN040
     FM190900 36003KT P6SM FEW040
     FM191300 VRB03KT P6SM FEW200
     FM191600 23008KT P6SM FEW250=



000
FTUS43 KLOT 181700 RRA
TAFDPA
TAF
KDPA 181742Z 1818/1918 36011G16KT P6SM BKN025 OVC035
     FM182200 36008KT P6SM BKN040
     FM190200 36003KT P6SM FEW040
     FM190800 VRB03KT P6SM FEW200
     FM191600 23008KT P6SM FEW250=



000
FTUS43 KLOT 181700 RRA
TAFORD
TAF
KORD 181742Z 1818/1924 36011G16KT P6SM BKN025 OVC035
     FM182200 36008KT P6SM BKN040
     FM190200 36003KT P6SM FEW040
     FM190800 VRB03KT P6SM FEW200
     FM191600 23008KT P6SM FEW250
     FM191900 22010G15KT P6SM SCT130=



000
FTUS43 KLOT 181600 AAB
TAFMDW
TAF AMD
KMDW 181607Z 1816/1912 36014G20KT 6SM -RA BKN025 OVC035
     FM181700 36012G16KT P6SM BKN025 BKN035
     FM182300 01008KT P6SM SCT040
     FM190300 VRB03KT P6SM FEW250=



000
FTUS43 KLOT 181600 AAB
TAFRFD
TAF AMD
KRFD 181607Z 1816/1912 01011KT P6SM BKN025
     FM182300 35006KT P6SM FEW040
     FM190300 00000KT P6SM FEW250=



000
FTUS43 KLOT 181600 AAB
TAFDPA
TAF AMD
KDPA 181607Z 1816/1912 35011KT P6SM BKN020
     FM182300 36006KT P6SM SCT040
     FM190300 00000KT P6SM FEW250=



000
FTUS43 KLOT 181600 AAB
TAFGYY
TAF AMD
KGYY 181607Z 1816/1912 34015G26KT 5SM -RA BKN020 OVC030
     FM181800 36012G17KT P6SM BKN035
     FM182300 36009KT P6SM SCT040
     FM190400 VRB03KT P6SM FEW250=



000
FTUS43 KLOT 181600 AAB
TAFGYY
TAF AMD
KGYY 181607Z 1816/1912 34015G26KT 5SM -RA BKN020 OVC030
     FM181800 36012G17KT P6SM BKN035
     FM182300 36009KT P6SM SCT040
     FM190400 VRB03KT P6SM FEW250=



000
FTUS43 KLOT 181600 AAB
TAFORD
TAF AMD
KORD 181607Z 1816/1918 36014G20KT 6SM -RA BKN024 OVC035
     FM181700 36012G16KT P6SM BKN025 BKN035
     FM182300 01008KT P6SM SCT040
     FM190300 VRB03KT P6SM FEW250
     FM191400 22008KT P6SM SCT250=



000
FTUS43 KLOT 181600 AAB
TAFDPA
TAF AMD
KDPA 181607Z 1816/1912 35011KT P6SM BKN020
     FM182300 36006KT P6SM SCT040
     FM190300 00000KT P6SM FEW250=



000
FTUS43 KLOT 181600 AAB
TAFMDW
TAF AMD
KMDW 181607Z 1816/1912 36014G20KT 6SM -RA BKN025 OVC035
     FM181700 36012G16KT P6SM BKN025 BKN035
     FM182300 01008KT P6SM SCT040
     FM190300 VRB03KT P6SM FEW250=



000
FTUS43 KLOT 181600 AAB
TAFRFD
TAF AMD
KRFD 181607Z 1816/1912 01011KT P6SM BKN025
     FM182300 35006KT P6SM FEW040
     FM190300 00000KT P6SM FEW250=



000
FTUS43 KLOT 181600 AAB
TAFGYY
TAF AMD
KGYY 181607Z 1816/1912 34015G26KT 5SM -RA BKN020 OVC030
     FM181800 36012G17KT P6SM BKN035
     FM182300 36009KT P6SM SCT040
     FM190400 VRB03KT P6SM FEW250=



000
FTUS43 KLOT 181600 AAB
TAFGYY
TAF AMD
KGYY 181607Z 1816/1912 34015G26KT 5SM -RA BKN020 OVC030
     FM181800 36012G17KT P6SM BKN035
     FM182300 36009KT P6SM SCT040
     FM190400 VRB03KT P6SM FEW250=



000
FTUS43 KLOT 181600 AAB
TAFORD
TAF AMD
KORD 181607Z 1816/1918 36014G20KT 6SM -RA BKN024 OVC035
     FM181700 36012G16KT P6SM BKN025 BKN035
     FM182300 01008KT P6SM SCT040
     FM190300 VRB03KT P6SM FEW250
     FM191400 22008KT P6SM SCT250=



000
FTUS43 KLOT 181300 AAA
TAFRFD
TAF AMD
KRFD 181401Z 1814/1912 35013G18KT P6SM VCSH BKN022 OVC030
     FM181600 35011KT P6SM BKN035
     FM182300 35006KT P6SM FEW040
     FM190300 00000KT P6SM FEW250=



000
FTUS43 KLOT 181300 AAA
TAFORD
TAF AMD
KORD 181401Z 1814/1918 35014G20KT 6SM -RA BKN024 OVC035
     FM181800 35012KT P6SM BKN035
     FM182300 01008KT P6SM SCT040
     FM190300 VRB03KT P6SM FEW250
     FM191400 22008KT P6SM SCT250=



000
FTUS43 KLOT 181300 AAA
TAFGYY
TAF AMD
KGYY 181401Z 1814/1912 32011G16KT P6SM OVC025
     FM181430 34015G22KT 5SM -RA BKN024 OVC035
     FM181900 35012G17KT P6SM BKN035
     FM182300 36009KT P6SM SCT040
     FM190400 VRB03KT P6SM FEW250=



000
FTUS43 KLOT 181300 AAA
TAFGYY
TAF AMD
KGYY 181401Z 1814/1912 32011G16KT P6SM OVC025
     FM181430 34015G22KT 5SM -RA BKN024 OVC035
     FM181900 35012G17KT P6SM BKN035
     FM182300 36009KT P6SM SCT040
     FM190400 VRB03KT P6SM FEW250=



000
FTUS43 KLOT 181300 AAA
TAFDPA
TAF AMD
KDPA 181401Z 1814/1912 35014G20KT P6SM VCSH BKN025 OVC035
     FM181700 35011KT P6SM BKN035
     FM182300 36006KT P6SM SCT040
     FM190300 00000KT P6SM FEW250=



000
FTUS43 KLOT 181300 AAA
TAFMDW
TAF AMD
KMDW 181401Z 1814/1912 35014G20KT 6SM -RA BKN025 OVC035
     FM181800 35012KT P6SM BKN035
     FM182300 01008KT P6SM SCT040
     FM190300 VRB03KT P6SM FEW250=



000
FTUS43 KLOT 181100
TAFDPA
TAF
KDPA 181120Z 1812/1912 33011G16KT P6SM OVC025
     FM181500 35014G20KT 6SM -RA BKN020 OVC035
     FM181800 35011KT P6SM BKN035
     FM182300 36006KT P6SM SCT040
     FM190300 00000KT P6SM FEW250=



000
FTUS43 KLOT 181100
TAFRFD
TAF
KRFD 181120Z 1812/1912 34011G16KT P6SM OVC025
     FM181400 35013G18KT 6SM -RA BKN020 OVC035
     FM181700 35011KT P6SM BKN035
     FM182300 35006KT P6SM FEW040
     FM190300 00000KT P6SM FEW250=



000
FTUS43 KLOT 181100
TAFORD
TAF
KORD 181120Z 1812/1918 34011G16KT P6SM OVC025
     FM181500 35014G20KT 6SM -RA BKN020 OVC035
     FM181800 35012KT P6SM BKN035
     FM182300 01008KT P6SM SCT040
     FM190300 VRB03KT P6SM FEW250
     FM191400 22008KT P6SM SCT250=



000
FTUS43 KLOT 181100
TAFMDW
TAF
KMDW 181120Z 1812/1912 34011G16KT P6SM OVC025
     FM181500 35014G20KT 6SM -RA BKN020 OVC035
     FM181800 35012KT P6SM BKN035
     FM182300 01008KT P6SM SCT040
     FM190300 VRB03KT P6SM FEW250=



000
FTUS43 KLOT 181100
TAFGYY
TAF
KGYY 181120Z 1812/1912 32011G16KT P6SM OVC025
     FM181600 34015G22KT 5SM -RA BKN020 OVC035
     FM181900 35012G17KT P6SM BKN035
     FM182300 36009KT P6SM SCT040
     FM190400 VRB03KT P6SM FEW250=



000
FTUS43 KLOT 181100
TAFGYY
TAF
KGYY 181120Z 1812/1912 32011G16KT P6SM OVC025
     FM181600 34015G22KT 5SM -RA BKN020 OVC035
     FM181900 35012G17KT P6SM BKN035
     FM182300 36009KT P6SM SCT040
     FM190400 VRB03KT P6SM FEW250=



000
FTUS43 KLOT 181100
TAFGYY
TAF
KGYY 181120Z 1812/1912 32011G16KT P6SM OVC025
     FM181600 34015G22KT 5SM -RA BKN020 OVC035
     FM181900 35012G17KT P6SM BKN035
     FM182300 36009KT P6SM SCT040
     FM190400 VRB03KT P6SM FEW250=



000
FTUS43 KLOT 181100
TAFORD
TAF
KORD 181120Z 1812/1918 34011G16KT P6SM OVC025
     FM181500 35014G20KT 6SM -RA BKN020 OVC035
     FM181800 35012KT P6SM BKN035
     FM182300 01008KT P6SM SCT040
     FM190300 VRB03KT P6SM FEW250
     FM191400 22008KT P6SM SCT250=



000
FTUS43 KLOT 181100
TAFRFD
TAF
KRFD 181120Z 1812/1912 34011G16KT P6SM OVC025
     FM181400 35013G18KT 6SM -RA BKN020 OVC035
     FM181700 35011KT P6SM BKN035
     FM182300 35006KT P6SM FEW040
     FM190300 00000KT P6SM FEW250=



000
FTUS43 KLOT 181100
TAFDPA
TAF
KDPA 181120Z 1812/1912 33011G16KT P6SM OVC025
     FM181500 35014G20KT 6SM -RA BKN020 OVC035
     FM181800 35011KT P6SM BKN035
     FM182300 36006KT P6SM SCT040
     FM190300 00000KT P6SM FEW250=



000
FTUS43 KLOT 181100
TAFMDW
TAF
KMDW 181120Z 1812/1912 34011G16KT P6SM OVC025
     FM181500 35014G20KT 6SM -RA BKN020 OVC035
     FM181800 35012KT P6SM BKN035
     FM182300 01008KT P6SM SCT040
     FM190300 VRB03KT P6SM FEW250=



000
FTUS43 KLOT 181100
TAFGYY
TAF
KGYY 181120Z 1812/1912 32011G16KT P6SM OVC025
     FM181600 34015G22KT 5SM -RA BKN020 OVC035
     FM181900 35012G17KT P6SM BKN035
     FM182300 36009KT P6SM SCT040
     FM190400 VRB03KT P6SM FEW250=



000
FTUS43 KLOT 180900 AAA
TAFGYY
TAF AMD
KGYY 180902Z 1809/1906 32010KT P6SM SCT025 BKN035
     FM181200 33013G18KT P6SM OVC025
     FM181500 34015G22KT P6SM VCSH OVC025
     FM181800 35012G17KT P6SM BKN035
     FM182300 36009KT P6SM SCT040
     FM190400 VRB03KT P6SM FEW250=



000
FTUS43 KLOT 180900 AAA
TAFGYY
TAF AMD
KGYY 180902Z 1809/1906 32010KT P6SM SCT025 BKN035
     FM181200 33013G18KT P6SM OVC025
     FM181500 34015G22KT P6SM VCSH OVC025
     FM181800 35012G17KT P6SM BKN035
     FM182300 36009KT P6SM SCT040
     FM190400 VRB03KT P6SM FEW250=



000
FTUS43 KLOT 180900 AAA
TAFDPA
TAF AMD
KDPA 180902Z 1809/1906 32010KT P6SM SCT025 BKN035
     FM181200 34012G17KT P6SM OVC025
     FM181500 35014G20KT P6SM VCSH OVC025
     FM181800 35011KT P6SM BKN035
     FM182300 36006KT P6SM SCT040
     FM190300 00000KT P6SM FEW250=



000
FTUS43 KLOT 180900 AAA
TAFMDW
TAF AMD
KMDW 180902Z 1809/1906 32010KT P6SM BKN035
     FM181200 34012G17KT P6SM OVC025
     FM181500 35014G20KT P6SM VCSH OVC025
     FM181800 35012KT P6SM BKN035
     FM182300 01008KT P6SM SCT040
     FM190300 VRB03KT P6SM FEW250=



000
FTUS43 KLOT 180900 AAA
TAFORD
TAF AMD
KORD 180902Z 1809/1912 32010KT P6SM BKN035
     FM181200 34012G17KT P6SM OVC025
     FM181500 35014G20KT P6SM VCSH OVC025
     FM181800 35012KT P6SM BKN035
     FM182300 01008KT P6SM SCT040
     FM190300 VRB03KT P6SM FEW250=



000
FTUS43 KLOT 180900 AAA
TAFRFD
TAF AMD
KRFD 180902Z 1809/1906 32011KT P6SM SCT025 OVC035
     FM181200 34012G18KT P6SM OVC025
     FM181700 35011KT P6SM BKN035
     FM182300 35006KT P6SM FEW040
     FM190300 00000KT P6SM FEW250=



000
FTUS43 KLOT 180500
TAFGYY
TAF
KGYY 180530Z 1806/1906 33014G21KT P6SM SCT025 BKN050
     FM181200 33013G18KT P6SM OVC025
     FM181500 34015G22KT P6SM VCSH OVC025
     FM181800 35012G17KT P6SM BKN035
     FM182300 36009KT P6SM SCT040
     FM190400 VRB03KT P6SM FEW250=



000
FTUS43 KLOT 180500
TAFORD
TAF
KORD 180530Z 1806/1912 33011KT P6SM FEW025 BKN050
     FM181100 34012G17KT P6SM OVC025
     FM181400 35014G20KT P6SM VCSH OVC025
     FM181700 35012KT P6SM BKN035
     FM182300 01008KT P6SM SCT040
     FM190300 VRB03KT P6SM FEW250=



000
FTUS43 KLOT 180500
TAFRFD
TAF
KRFD 180530Z 1806/1906 33009KT P6SM BKN050
     FM181100 34012G18KT P6SM BKN030
     FM181700 35011KT P6SM BKN035
     FM182300 35006KT P6SM FEW040
     FM190300 00000KT P6SM FEW250=



000
FTUS43 KLOT 180500
TAFMDW
TAF
KMDW 180530Z 1806/1906 33011KT P6SM FEW025 BKN050
     FM181100 34012G17KT P6SM OVC025
     FM181500 35014G20KT P6SM VCSH OVC025
     FM181800 35012KT P6SM BKN035
     FM182300 01008KT P6SM SCT040
     FM190300 VRB03KT P6SM FEW250=



000
FTUS43 KLOT 180500
TAFDPA
TAF
KDPA 180530Z 1806/1906 33011KT P6SM FEW025 BKN050
     FM181100 34012G17KT P6SM OVC025
     FM181400 35014G20KT P6SM VCSH OVC025
     FM181700 35011KT P6SM BKN035
     FM182300 36006KT P6SM SCT040
     FM190300 00000KT P6SM FEW250=



000
FTUS43 KLOT 180500
TAFGYY
TAF
KGYY 180530Z 1806/1906 33014G21KT P6SM SCT025 BKN050
     FM181200 33013G18KT P6SM OVC025
     FM181500 34015G22KT P6SM VCSH OVC025
     FM181800 35012G17KT P6SM BKN035
     FM182300 36009KT P6SM SCT040
     FM190400 VRB03KT P6SM FEW250=



000
FTUS43 KLOT 180300 AAB
TAFGYY
TAF AMD
KGYY 180302Z 1803/1824 33018G27KT P6SM SCT025 BKN035
     FM180700 33015G25KT P6SM BKN020 OVC030
     FM182000 34014G22KT P6SM BKN030=



000
FTUS43 KLOT 180300 AAB
TAFRFD
TAF AMD
KRFD 180302Z 1803/1824 32012G20KT P6SM BKN025 OVC035
     FM180400 34012G17KT P6SM SCT025 BKN035 OVC050
     FM181000 34010KT P6SM BKN025
     FM181700 34012KT P6SM BKN030
     FM182100 35007KT P6SM FEW030=



000
FTUS43 KLOT 180300 AAB
TAFMDW
TAF AMD
KMDW 180302Z 1803/1824 32014G25KT P6SM BKN025 OVC035
     FM180400 32012G20KT P6SM SCT025 BKN035 OVC050
     FM181000 34012G17KT P6SM BKN025
     FM181700 35013KT P6SM SCT025 BKN035
     FM182300 35007KT P6SM FEW030=



000
FTUS43 KLOT 180300 AAB
TAFDPA
TAF AMD
KDPA 180302Z 1803/1824 32014G24KT P6SM BKN025 OVC035
     FM180400 32012G20KT P6SM SCT025 BKN035 OVC050
     FM181000 34012G17KT P6SM BKN025
     FM181700 35013KT P6SM SCT025 BKN035
     FM182300 35007KT P6SM FEW030=



000
FTUS43 KLOT 180300 AAB
TAFGYY
TAF AMD
KGYY 180302Z 1803/1824 33018G27KT P6SM SCT025 BKN035
     FM180700 33015G25KT P6SM BKN020 OVC030
     FM182000 34014G22KT P6SM BKN030=



000
FTUS43 KLOT 180300 AAB
TAFORD
TAF AMD
KORD 180302Z 1803/1906 33014G25KT P6SM BKN025 OVC035
     FM180400 32012G20KT P6SM SCT025 BKN035 OVC050
     FM181000 34012G17KT P6SM BKN025
     FM181700 35013KT P6SM SCT025 BKN035
     FM182300 35007KT P6SM FEW030=



000
FTUS43 KLOT 180100 AAA
TAFMDW
TAF AMD
KMDW 180125Z 1801/1824 29012G20KT P6SM SCT030 OVC040
     FM180200 32014G21KT P6SM BKN025 OVC035
     FM180400 32012G19KT P6SM SCT025 BKN035 OVC050
     FM181000 34012G17KT P6SM BKN025
     FM181700 35013KT P6SM SCT025 BKN035
     FM182300 35007KT P6SM FEW030=



000
FTUS43 KLOT 180100 AAA
TAFORD
TAF AMD
KORD 180125Z 1801/1906 29012G20KT P6SM SCT030 OVC040
     FM180200 32014G21KT P6SM BKN025 OVC035
     FM180400 32012G19KT P6SM SCT025 BKN035 OVC050
     FM181000 34012G17KT P6SM BKN025
     FM181700 35013KT P6SM SCT025 BKN035
     FM182300 35007KT P6SM FEW030=



000
FTUS43 KLOT 180100 AAA
TAFDPA
TAF AMD
KDPA 180125Z 1801/1824 29012G20KT P6SM SCT030 OVC040
     FM180200 32014G21KT P6SM BKN025 OVC035
     FM180400 32012G19KT P6SM SCT025 BKN035 OVC050
     FM181000 34012G17KT P6SM BKN025
     FM181700 35013KT P6SM SCT025 BKN035
     FM182300 35007KT P6SM FEW030=



000
FTUS43 KLOT 180100 AAA
TAFGYY
TAF AMD
KGYY 180125Z 1801/1824 27015G25KT P6SM BKN028 OVC035
     FM180300 33015G25KT P6SM SCT025 BKN035
     FM180700 33015G25KT P6SM BKN020 OVC030
     FM182000 34014G22KT P6SM BKN030=



000
FTUS43 KLOT 180100 AAA
TAFGYY
TAF AMD
KGYY 180125Z 1801/1824 27015G25KT P6SM BKN028 OVC035
     FM180300 33015G25KT P6SM SCT025 BKN035
     FM180700 33015G25KT P6SM BKN020 OVC030
     FM182000 34014G22KT P6SM BKN030=



000
FTUS43 KLOT 180100 AAA
TAFRFD
TAF AMD
KRFD 180125Z 1801/1824 31012G20KT P6SM SCT030 OVC040
     FM180200 32012G20KT P6SM BKN025 OVC035
     FM180400 34012G17KT P6SM SCT025 BKN035 OVC050
     FM181000 34010KT P6SM BKN025
     FM181700 34012KT P6SM BKN030
     FM182100 35007KT P6SM FEW030=



000
FTUS43 KLOT 172300
TAFGYY
TAF
KGYY 172322Z 1800/1824 27015G27KT P6SM OVC025
     FM180300 33015G25KT P6SM BKN022 OVC035
     FM181200 33015G22KT P6SM BKN020 OVC030
     FM182000 34014G22KT P6SM BKN030=



000
FTUS43 KLOT 172300
TAFGYY
TAF
KGYY 172322Z 1800/1824 27015G27KT P6SM OVC025
     FM180300 33015G25KT P6SM BKN022 OVC035
     FM181200 33015G22KT P6SM BKN020 OVC030
     FM182000 34014G22KT P6SM BKN030=



000
FTUS43 KLOT 172300
TAFRFD
TAF
KRFD 172322Z 1800/1824 29015G25KT P6SM OVC025
     FM180100 32014G21KT P6SM BKN020 OVC035
     FM180600 34012G17KT P6SM OVC025
     FM181700 34012KT P6SM BKN030
     FM182100 35007KT P6SM FEW030=



000
FTUS43 KLOT 172300
TAFORD
TAF
KORD 172322Z 1800/1906 29014G25KT P6SM OVC025
     FM180200 32014G21KT P6SM BKN022 OVC035
     FM180900 34012G17KT P6SM OVC025
     FM181700 35013KT P6SM SCT025 BKN035
     FM182300 35007KT P6SM FEW030=



000
FTUS43 KLOT 172300
TAFMDW
TAF
KMDW 172322Z 1800/1824 29014G25KT P6SM OVC025
     FM180200 32014G21KT P6SM BKN022 OVC035
     FM180900 34012G17KT P6SM OVC025
     FM181700 35013KT P6SM SCT025 BKN035
     FM182300 35007KT P6SM FEW030=



000
FTUS43 KLOT 172300
TAFDPA
TAF
KDPA 172322Z 1800/1824 29014G25KT P6SM OVC025
     FM180200 32014G21KT P6SM BKN023 OVC035
     FM180900 34012G17KT P6SM OVC025
     FM181700 35013KT P6SM SCT025 BKN035
     FM182300 35007KT P6SM FEW030=



000
FTUS43 KLOT 172300
TAFDPA
TAF
KDPA 172322Z 1800/1824 29014G25KT P6SM OVC025
     FM180200 32014G21KT P6SM BKN023 OVC035
     FM180900 34012G17KT P6SM OVC025
     FM181700 35013KT P6SM SCT025 BKN035
     FM182300 35007KT P6SM FEW030=



000
FTUS43 KLOT 172300
TAFGYY
TAF
KGYY 172322Z 1800/1824 27015G27KT P6SM OVC025
     FM180300 33015G25KT P6SM BKN022 OVC035
     FM181200 33015G22KT P6SM BKN020 OVC030
     FM182000 34014G22KT P6SM BKN030=



000
FTUS43 KLOT 172300
TAFORD
TAF
KORD 172322Z 1800/1906 29014G25KT P6SM OVC025
     FM180200 32014G21KT P6SM BKN022 OVC035
     FM180900 34012G17KT P6SM OVC025
     FM181700 35013KT P6SM SCT025 BKN035
     FM182300 35007KT P6SM FEW030=



000
FTUS43 KLOT 172300
TAFGYY
TAF
KGYY 172322Z 1800/1824 27015G27KT P6SM OVC025
     FM180300 33015G25KT P6SM BKN022 OVC035
     FM181200 33015G22KT P6SM BKN020 OVC030
     FM182000 34014G22KT P6SM BKN030=



000
FTUS43 KLOT 172300
TAFMDW
TAF
KMDW 172322Z 1800/1824 29014G25KT P6SM OVC025
     FM180200 32014G21KT P6SM BKN022 OVC035
     FM180900 34012G17KT P6SM OVC025
     FM181700 35013KT P6SM SCT025 BKN035
     FM182300 35007KT P6SM FEW030=



000
FTUS43 KLOT 172300
TAFRFD
TAF
KRFD 172322Z 1800/1824 29015G25KT P6SM OVC025
     FM180100 32014G21KT P6SM BKN020 OVC035
     FM180600 34012G17KT P6SM OVC025
     FM181700 34012KT P6SM BKN030
     FM182100 35007KT P6SM FEW030=



000
FTUS43 KLOT 172200 AAB
TAFMDW
TAF AMD
KMDW 172203Z 1722/1818 28015G25KT P6SM BKN030 OVC040
     FM172300 28015G25KT P6SM OVC022
     FM180200 32014G21KT P6SM OVC025
     FM180600 34012G17KT P6SM OVC025=



000
FTUS43 KLOT 172200 AAB
TAFRFD
TAF AMD
KRFD 172203Z 1722/1818 28018G27KT P6SM OVC022
     FM180100 32014G21KT P6SM OVC025
     FM180600 34012G17KT P6SM OVC025=



000
FTUS43 KLOT 172200 AAB
TAFORD
TAF AMD
KORD 172203Z 1722/1824 28015G25KT P6SM BKN027 OVC040
     FM172300 28015G25KT P6SM OVC022
     FM180200 32014G21KT P6SM OVC025
     FM180600 34012G17KT P6SM OVC025
     FM181700 34013KT P6SM SCT025 BKN035
     FM182300 34007KT P6SM FEW030=



000
FTUS43 KLOT 172200 AAB
TAFDPA
TAF AMD
KDPA 172203Z 1722/1818 28015G25KT P6SM OVC028
     FM172300 28015G25KT P6SM OVC022
     FM180200 32014G21KT P6SM OVC025
     FM180600 34012G17KT P6SM OVC025=



000
FTUS43 KLOT 172200 AAB
TAFRFD
TAF AMD
KRFD 172203Z 1722/1818 28018G27KT P6SM OVC022
     FM180100 32014G21KT P6SM OVC025
     FM180600 34012G17KT P6SM OVC025=



000
FTUS43 KLOT 172200 AAB
TAFMDW
TAF AMD
KMDW 172203Z 1722/1818 28015G25KT P6SM BKN030 OVC040
     FM172300 28015G25KT P6SM OVC022
     FM180200 32014G21KT P6SM OVC025
     FM180600 34012G17KT P6SM OVC025=



000
FTUS43 KLOT 172200 AAB
TAFORD
TAF AMD
KORD 172203Z 1722/1824 28015G25KT P6SM BKN027 OVC040
     FM172300 28015G25KT P6SM OVC022
     FM180200 32014G21KT P6SM OVC025
     FM180600 34012G17KT P6SM OVC025
     FM181700 34013KT P6SM SCT025 BKN035
     FM182300 34007KT P6SM FEW030=



000
FTUS43 KLOT 172200 AAB
TAFDPA
TAF AMD
KDPA 172203Z 1722/1818 28015G25KT P6SM OVC028
     FM172300 28015G25KT P6SM OVC022
     FM180200 32014G21KT P6SM OVC025
     FM180600 34012G17KT P6SM OVC025=



000
FTUS43 KLOT 172200 AAB
TAFGYY
TAF AMD
KGYY 172203Z 1722/1818 27018G27KT P6SM BKN030 OVC040
     FM180000 28018G27KT P6SM OVC022
     FM180300 32014G21KT P6SM OVC025
     FM180600 34012G17KT P6SM OVC025=



000
FTUS43 KLOT 172200 AAB
TAFGYY
TAF AMD
KGYY 172203Z 1722/1818 27018G27KT P6SM BKN030 OVC040
     FM180000 28018G27KT P6SM OVC022
     FM180300 32014G21KT P6SM OVC025
     FM180600 34012G17KT P6SM OVC025=



000
FTUS43 KLOT 172200 AAB
TAFGYY
TAF AMD
KGYY 172203Z 1722/1818 27018G27KT P6SM BKN030 OVC040
     FM180000 28018G27KT P6SM OVC022
     FM180300 32014G21KT P6SM OVC025
     FM180600 34012G17KT P6SM OVC025=



000
FTUS43 KLOT 172200 AAB
TAFGYY
TAF AMD
KGYY 172203Z 1722/1818 27018G27KT P6SM BKN030 OVC040
     FM180000 28018G27KT P6SM OVC022
     FM180300 32014G21KT P6SM OVC025
     FM180600 34012G17KT P6SM OVC025=



000
FTUS43 KLOT 171900 AAA
TAFGYY
TAF AMD
KGYY 171954Z 1720/1818 28018G27KT P6SM OVC025
     FM172200 28018G27KT P6SM OVC022
     FM180100 32014G21KT P6SM OVC025
     FM180600 34012G17KT P6SM OVC025=



000
FTUS43 KLOT 171900 AAA
TAFMDW
TAF AMD
KMDW 171954Z 1720/1818 28018G27KT P6SM OVC025
     FM172200 28018G27KT P6SM OVC022
     FM180100 32014G21KT P6SM OVC025
     FM180600 34012G17KT P6SM OVC025=



000
FTUS43 KLOT 171900 AAA
TAFRFD
TAF AMD
KRFD 171954Z 1720/1818 28018G27KT P6SM OVC025
     FM172200 28018G27KT P6SM OVC022
     FM180100 32014G21KT P6SM OVC025
     FM180600 34012G17KT P6SM OVC025=



000
FTUS43 KLOT 171900 AAA
TAFORD
TAF AMD
KORD 171954Z 1720/1824 28018G27KT P6SM OVC025
     FM172200 28018G27KT P6SM OVC022
     FM180100 32014G21KT P6SM OVC025
     FM180600 34012G17KT P6SM OVC025
     FM181700 34013KT P6SM SCT025 BKN035
     FM182300 34007KT P6SM FEW030=



000
FTUS43 KLOT 171900 AAA
TAFDPA
TAF AMD
KDPA 171954Z 1720/1818 28018G27KT P6SM OVC025
     FM172200 28018G27KT P6SM OVC022
     FM180100 32014G21KT P6SM OVC025
     FM180600 34012G17KT P6SM OVC025=



000
FTUS43 KLOT 171900 AAA
TAFGYY
TAF AMD
KGYY 171954Z 1720/1818 28018G27KT P6SM OVC025
     FM172200 28018G27KT P6SM OVC022
     FM180100 32014G21KT P6SM OVC025
     FM180600 34012G17KT P6SM OVC025=



    US Dept of Commerce
    National Oceanic and Atmospheric Administration
    National Weather Service
    1325 East West Highway
    Silver Spring, MD 20910
    Page Author: NWS Internet Services Team
Disclaimer
Information Quality
Credits
Glossary
Privacy Policy
Freedom of Information Act (FOIA)
About Us
Career Opportunities